• Join FlightAware (Why Join?)
  • Login
  • US Flag 
10:21AM EDT


 

Airport Tracker/Info


-or-


 

Live Flight TrackerFlight Track Log ✈ ASQ2542 ✈ 22-Apr-2013 ✈ KCRP - KDFW

Flight Track Log - Related Links

Times and Time Zones

All times are in EDT time to prevent confusion due to time zone crossing. See the ASQ2542 flight status page for this flight to view local times or setup timezone preferences in your user account.

Time Position Orientation Groundspeed Altitude Reporting Facility
EDT Latitude Longitude Course Direction KTS MPH feet Rate Location/Type
04:24PM 27.7539 -97.4933 238° Southwest 150 173 1,000  Level Houston Center
04:25PM 27.7344 -97.5292 238° Southwest 212 244 2,300 2,400 Climbing Houston Center
04:26PM 27.7658 -97.5686 312° West 225 259 4,800 2,400 Climbing Houston Center
04:27PM 27.8336 -97.6114 331° Northwest 267 307 6,900 2,160 Climbing Houston Center
04:28PM 27.9031 -97.6572 330° Northwest 285 328 9,300 1,740 Climbing Houston Center
04:29PM 27.9742 -97.7061 329° Northwest 298 343 10,600 1,380 Climbing Houston Center
04:30PM 28.0483 -97.7819 318° Northwest 350 403 12,200 1,620 Climbing Houston Center
04:31PM 28.1000 -97.9000 296° West 355 409 14,000 1,320 Climbing Houston Center
04:32PM 28.1436 -98.0025 296° West 359 413 15,000 1,080 Climbing Houston Center
04:33PM 28.2292 -98.0664 327° Northwest 391 450 16,300 1,260 Climbing Houston Center
04:34PM 28.3336 -98.0975 345° North 386 444 17,700 1,200 Climbing Houston Center
04:35PM 28.4353 -98.1283 345° North 381 438 18,800 1,080 Climbing Houston Center
04:36PM 28.5544 -98.1881 336° Northwest 386 444 20,000 1,020 Climbing Houston Center
04:37PM 28.6464 -98.2547 328° Northwest 391 450 21,000 960 Climbing Houston Center
04:38PM 28.7397 -98.3236 327° Northwest 386 444 22,100 1,020 Climbing Houston Center
04:39PM 28.8386 -98.3956 327° Northwest 389 448 23,200 960 Climbing Houston Center
04:40PM 28.9281 -98.4633 326° Northwest 386 444 24,200 960 Climbing Houston Center
04:41PM 29.0317 -98.4964 344° North 401 461 25,300 960 Climbing Houston Center
04:42PM 29.1522 -98.4906 North 405 466 26,300 780 Climbing Houston Center
04:43PM 29.2642 -98.4836 North 404 465 27,000 300 Climbing Houston Center
04:44PM 29.3892 -98.4758 North 415 478 27,000  Level Houston Center
04:45PM 29.5017 -98.4678 North 430 495 27,000  Level Houston Center
04:46PM 29.6397 -98.4611 North 443 510 27,000  Level Houston Center
04:47PM 29.7731 -98.4425 North 435 501 27,000  Level Houston Center
04:48PM 29.8992 -98.4239 North 453 521 27,000  Level Houston Center
04:49PM 30.0364 -98.4033 North 460 529 27,000  Level Houston Center
04:50PM 30.1639 -98.3842 North 462 532 27,000  Level Houston Center
04:51PM 30.3014 -98.3631 North 462 532 27,000  Level Houston Center
04:52PM 30.4167 -98.3475 North 468 539 27,000  Level Houston Center
04:53PM 30.5439 -98.3289 North 464 534 27,000  Level Houston Center
04:54PM 30.6706 -98.3092 North 460 529 27,000  Level Houston Center
04:56PM 30.8242 -98.2869 North 461 531 27,000  Level Houston Center
04:56PM 30.8992 -98.2775 North 447 514 27,000  Level Fort Worth Center
04:57PM 31.0308 -98.2617 North 452 520 27,000 -240 Level Fort Worth Center
04:58PM 31.1689 -98.2339 10° North 452 520 26,600 -900 Descending Fort Worth Center
04:59PM 31.2878 -98.2206 North 437 503 25,300 -1,080 Descending Fort Worth Center
05:00PM 31.3736 -98.2042 North 388 447 24,500 -660 Descending Fort Worth Center
05:01PM 31.4717 -98.1928 North 357 411 24,000 -300 Descending Fort Worth Center
05:02PM 31.5681 -98.1667 13° North 351 404 24,000  Level Fort Worth Center
05:03PM 31.6600 -98.1236 22° Northeast 356 410 24,000  Level Fort Worth Center
05:04PM 31.7544 -98.0756 23° Northeast 362 417 24,000  Level Fort Worth Center
05:05PM 31.8506 -98.0419 17° North 357 411 24,000  Level Fort Worth Center
05:06PM 31.9528 -98.0597 352° North 338 389 24,000 -600 Level Fort Worth Center
05:07PM 32.0444 -98.0728 353° North 333 383 22,900 -1,500 Descending Fort Worth Center
05:08PM 32.1322 -98.0511 12° North 319 367 21,000 -2,040 Descending Fort Worth Center
05:09PM 32.1558 -97.9311 77° East 287 330 18,900 -1,980 Descending Fort Worth Center
05:10PM 32.2022 -97.8308 61° Northeast 324 373 17,100 -1,860 Descending Fort Worth Center
05:11PM 32.2692 -97.7475 46° Northeast 363 418 15,200 -2,100 Descending Fort Worth Center
05:12PM 32.3467 -97.6544 45° Northeast 369 425 13,000 -2,040 Descending Fort Worth Center
05:13PM 32.4094 -97.5808 45° Northeast 358 412 11,200 -1,020 Descending Fort Worth Center
05:14PM 32.4825 -97.4947 45° Northeast 341 392 11,000 -120 Descending Fort Worth Center
05:15PM 32.5369 -97.4281 46° Northeast 323 372 11,000  Level Fort Worth Center
05:16PM 32.6036 -97.3469 46° Northeast 312 359 11,000  Level Fort Worth Center
05:17PM 32.6517 -97.2875 46° Northeast 288 331 11,000  Level Fort Worth Center
05:18PM 32.7100 -97.2158 46° Northeast 274 315 11,000  Level Fort Worth Center
05:19PM 32.7642 -97.1714 35° Northeast 269 310 11,000 -900 Level Fort Worth Center
05:20PM 32.8353 -97.1686 North 254 292 9,300 -1,920 Descending Fort Worth Center
05:21PM 32.9083 -97.1661 North 249 287 7,200 -2,100 Descending Fort Worth Center
05:22PM 32.9897 -97.1658 360° North 257 296 5,200 -1,560 Descending Fort Worth Center
05:23PM 33.0503 -97.1656 360° North 245 282 4,100 -1,080 Descending Fort Worth Center
05:24PM 33.1169 -97.1431 16° North 230 265 3,100 -840 Descending Fort Worth Center
05:25PM 33.1167 -97.1167 91° East 240 276 3,000 -120 Descending Dallas / Fort Worth TRACON
05:25PM 33.0833 -97.0667 128° Southeast 188 216 3,000  Level Dallas / Fort Worth TRACON
05:26PM 33.0500 -97.0500 157° South 159 183 3,000 -300 Level Dallas / Fort Worth TRACON
05:27PM 33.0000 -97.0500 180° South 160 184 2,400 -600 Descending Dallas / Fort Worth TRACON